Time;durP1;ratioP1;P1;durP2;ratioP2;P2;SDS_P1;SDS_P2;PMS_P1;PMS_P2;Temp;Humidity;BMP_temperature;BMP_pressure;BME280_temperature;BME280_humidity;BME280_pressure;Samples;Min_cycle;Max_cycle;Signal;HPM_P1;HPM_P2
2022/11/27 00:00:36;;;;;;;5.28;2.78;;;24.50;99.90;;;;;;5074259;28;20502;-52
2022/11/27 00:03:02;;;;;;;3.03;2.30;;;24.50;99.90;;;;;;5073934;28;20021;-51
2022/11/27 00:05:28;;;;;;;5.93;3.00;;;24.50;99.90;;;;;;5036128;28;20097;-50
2022/11/27 00:07:53;;;;;;;4.00;2.40;;;24.50;99.90;;;;;;5068350;28;20423;-50
2022/11/27 00:10:19;;;;;;;3.72;2.33;;;24.50;99.90;;;;;;5072971;28;20036;-50
2022/11/27 00:12:45;;;;;;;3.15;2.08;;;24.50;99.90;;;;;;5073929;28;20020;-50
2022/11/27 00:15:10;;;;;;;4.05;2.30;;;24.50;99.90;;;;;;5074166;28;20035;-50
2022/11/27 00:17:36;;;;;;;4.82;2.45;;;24.40;99.90;;;;;;5073476;28;20099;-50
2022/11/27 00:20:03;;;;;;;4.90;2.35;;;24.40;99.90;;;;;;5073496;28;20543;-52
2022/11/27 00:22:28;;;;;;;3.67;2.20;;;24.40;99.90;;;;;;5070331;28;20399;-51
2022/11/27 00:24:54;;;;;;;4.20;2.47;;;24.40;99.90;;;;;;5055646;28;20027;-51
2022/11/27 00:27:20;;;;;;;4.82;2.30;;;24.40;99.90;;;;;;5071971;28;20108;-52
2022/11/27 00:29:46;;;;;;;4.45;2.33;;;24.40;99.90;;;;;;5055331;28;20032;-51
2022/11/27 00:32:11;;;;;;;6.07;2.45;;;24.40;99.90;;;;;;5073078;28;20049;-52
2022/11/27 00:34:37;;;;;;;4.97;2.60;;;24.30;99.90;;;;;;5054956;28;20017;-50
2022/11/27 00:37:03;;;;;;;4.47;2.63;;;24.40;99.90;;;;;;5052758;28;20411;-50
2022/11/27 00:39:29;;;;;;;5.00;2.47;;;24.30;99.90;;;;;;5063160;28;20107;-51
2022/11/27 00:41:55;;;;;;;7.22;2.42;;;24.30;99.90;;;;;;5052597;28;20025;-51
2022/11/27 00:44:21;;;;;;;4.70;2.17;;;24.30;99.90;;;;;;5052946;28;20538;-50
2022/11/27 00:46:47;;;;;;;6.38;3.00;;;24.30;99.90;;;;;;5053095;28;20036;-51
2022/11/27 00:49:13;;;;;;;4.13;2.30;;;24.30;99.90;;;;;;5052548;28;20075;-51
2022/11/27 00:51:40;;;;;;;6.13;2.40;;;24.30;99.90;;;;;;5034719;28;20489;-51
2022/11/27 00:54:06;;;;;;;3.72;2.30;;;24.30;99.90;;;;;;5052803;28;20456;-50
2022/11/27 00:56:35;;;;;;;3.85;2.65;;;24.20;99.90;;;;;;5052303;28;20070;-50
2022/11/27 01:01:40;;;;;;;3.47;2.38;;;24.30;99.90;;;;;;5013637;28;20407;-49
2022/11/27 01:04:08;;;;;;;3.33;2.05;;;24.20;99.90;;;;;;5012922;28;20037;-52
2022/11/27 01:06:34;;;;;;;4.18;2.28;;;24.20;99.90;;;;;;5028001;28;20030;-50
2022/11/27 01:09:00;;;;;;;4.53;2.30;;;24.20;99.90;;;;;;5012797;28;20080;-49
2022/11/27 01:11:29;;;;;;;6.22;2.65;;;24.20;99.90;;;;;;5012290;28;20034;-50
2022/11/27 01:13:57;;;;;;;6.80;2.88;;;24.20;99.90;;;;;;5017582;28;20137;-50
2022/11/27 01:16:25;;;;;;;4.13;2.75;;;24.20;99.90;;;;;;5033038;28;20405;-50
2022/11/27 01:18:54;;;;;;;5.90;2.42;;;24.20;99.90;;;;;;5032495;28;20026;-51
2022/11/27 01:21:21;;;;;;;4.93;2.88;;;24.20;99.90;;;;;;5032961;28;20046;-51
2022/11/27 01:23:48;;;;;;;6.20;3.00;;;24.20;99.90;;;;;;5032927;28;20029;-49
2022/11/27 01:26:16;;;;;;;4.35;2.83;;;24.20;99.90;;;;;;5032625;28;20032;-50
2022/11/27 01:28:42;;;;;;;5.57;2.78;;;24.10;99.90;;;;;;5032563;28;20424;-51
2022/11/27 01:31:17;;;;;;;3.60;2.38;;;24.20;99.90;;;;;;5032807;28;20022;-51
2022/11/27 01:33:44;;;;;;;5.07;2.38;;;24.10;99.90;;;;;;5032349;28;20044;-52
2022/11/27 01:36:12;;;;;;;5.90;3.40;;;24.10;99.90;;;;;;5032029;28;20026;-50
2022/11/27 01:38:38;;;;;;;3.53;2.67;;;24.10;99.90;;;;;;5019662;28;20038;-49
2022/11/27 01:41:17;;;;;;;4.50;2.72;;;24.10;99.90;;;;;;5030013;28;20021;-49
2022/11/27 01:43:48;;;;;;;6.07;2.53;;;24.10;99.90;;;;;;5019740;28;20034;-50
2022/11/27 01:46:27;;;;;;;6.65;2.60;;;24.10;99.90;;;;;;5030691;28;20422;-49
2022/11/27 01:49:07;;;;;;;4.80;2.90;;;24.10;99.90;;;;;;5032107;28;20534;-49
2022/11/27 01:51:40;;;;;;;5.88;2.60;;;24.10;99.90;;;;;;5032556;28;20026;-49
2022/11/27 01:54:08;;;;;;;3.50;2.63;;;24.10;99.90;;;;;;5032485;28;20037;-48
2022/11/27 01:56:34;;;;;;;5.45;2.50;;;24.00;99.90;;;;;;5020270;28;20385;-51
2022/11/27 01:59:01;;;;;;;6.47;2.78;;;24.00;99.90;;;;;;5011910;28;20025;-50
2022/11/27 02:01:27;;;;;;;4.60;2.95;;;24.00;99.90;;;;;;5026022;23;20140;-50
2022/11/27 02:03:56;;;;;;;5.85;2.88;;;24.00;99.90;;;;;;5011661;28;20117;-50
2022/11/27 02:06:23;;;;;;;4.43;2.70;;;24.00;99.90;;;;;;5012032;28;20014;-50
2022/11/27 02:08:49;;;;;;;4.00;2.38;;;24.00;99.90;;;;;;5011657;28;20055;-50
2022/11/27 02:11:39;;;;;;;4.25;2.55;;;24.00;99.90;;;;;;5015639;28;20033;-49
2022/11/27 02:14:13;;;;;;;5.43;2.75;;;24.00;99.90;;;;;;5020892;28;20033;-52
2022/11/27 02:17:12;;;;;;;5.05;2.63;;;24.00;99.90;;;;;;5029670;28;20025;-51
2022/11/27 02:20:10;;;;;;;7.35;3.00;;;24.00;99.90;;;;;;5028444;28;20389;-52
2022/11/27 02:23:04;;;;;;;6.60;2.60;;;24.00;99.90;;;;;;5032178;28;20489;-50
2022/11/27 02:26:05;;;;;;;5.65;2.53;;;23.90;99.90;;;;;;5031707;28;20017;-51
2022/11/27 02:28:51;;;;;;;5.35;2.60;;;23.90;99.90;;;;;;5031865;28;20021;-50
2022/11/27 02:31:43;;;;;;;4.95;2.72;;;23.90;99.90;;;;;;5021436;28;20096;-50
2022/11/27 02:34:30;;;;;;;4.57;3.05;;;23.90;99.90;;;;;;5022679;28;20561;-50
2022/11/27 02:37:07;;;;;;;4.90;2.72;;;23.90;99.90;;;;;;5028428;28;20036;-50
2022/11/27 02:39:39;;;;;;;4.93;2.88;;;23.90;99.90;;;;;;5031823;28;20036;-49
2022/11/27 02:42:11;;;;;;;4.60;2.70;;;23.90;99.90;;;;;;5031674;28;20370;-49
2022/11/27 02:44:45;;;;;;;4.35;3.10;;;23.90;99.90;;;;;;5032011;28;20025;-50
2022/11/27 02:47:13;;;;;;;4.72;2.92;;;23.90;99.90;;;;;;5019277;28;20021;-50
2022/11/27 02:49:42;;;;;;;5.70;3.03;;;23.90;99.90;;;;;;5035400;28;20025;-49
2022/11/27 02:52:10;;;;;;;5.85;3.13;;;23.80;99.90;;;;;;5035659;28;20033;-49
2022/11/27 02:54:39;;;;;;;3.30;2.42;;;23.80;99.90;;;;;;5035793;28;20107;-50
2022/11/27 02:57:06;;;;;;;3.97;2.83;;;23.80;99.90;;;;;;5035304;28;20025;-50
2022/11/27 02:59:33;;;;;;;;;;;23.80;99.90;;;;;;5040820;23;20036;-51
2022/11/27 03:02:06;;;;;;;4.20;2.83;;;23.80;99.90;;;;;;5014299;28;19925;-52
2022/11/27 03:04:45;;;;;;;4.53;3.05;;;23.80;99.90;;;;;;5015347;28;20026;-51
2022/11/27 03:07:17;;;;;;;5.43;3.05;;;23.80;99.90;;;;;;5015591;28;20030;-49
2022/11/27 03:09:47;;;;;;;5.63;3.25;;;23.80;99.90;;;;;;5015413;28;20473;-50
2022/11/27 03:12:14;;;;;;;3.80;2.90;;;23.80;99.90;;;;;;5015138;28;20038;-51
2022/11/27 03:14:42;;;;;;;4.60;2.90;;;23.80;99.90;;;;;;5015476;28;20524;-49
2022/11/27 03:17:10;;;;;;;3.72;2.92;;;23.80;99.90;;;;;;5015566;28;20022;-49
2022/11/27 03:19:49;;;;;;;4.22;3.05;;;23.80;99.90;;;;;;5014453;28;20030;-48
2022/11/27 03:22:16;;;;;;;4.78;2.90;;;23.70;99.90;;;;;;5015184;28;20434;-48
2022/11/27 03:24:41;;;;;;;5.10;2.58;;;23.70;99.90;;;;;;5014670;28;20024;-48
2022/11/27 03:27:09;;;;;;;4.45;3.17;;;23.70;99.90;;;;;;5014959;28;20382;-48
2022/11/27 03:29:40;;;;;;;4.75;2.53;;;23.70;99.90;;;;;;5013195;28;20037;-50
2022/11/27 03:32:06;;;;;;;5.35;3.20;;;23.70;99.90;;;;;;5013150;28;20026;-48
2022/11/27 03:34:32;;;;;;;5.65;3.30;;;23.70;99.90;;;;;;5013250;28;20045;-48
2022/11/27 03:36:58;;;;;;;6.18;3.10;;;23.70;99.90;;;;;;5013130;28;20014;-48
2022/11/27 03:39:26;;;;;;;5.45;3.10;;;23.60;99.90;;;;;;5012718;28;20006;-48
2022/11/27 03:42:10;;;;;;;;;;;23.60;99.90;;;;;;5013602;28;20422;-48
2022/11/27 03:44:45;;;;;;;6.20;2.88;;;23.60;99.90;;;;;;5012938;28;19906;-48
2022/11/27 03:47:19;;;;;;;5.35;3.03;;;23.60;99.90;;;;;;5012884;28;20022;-48
2022/11/27 03:50:06;;;;;;;4.70;2.88;;;23.60;99.90;;;;;;5012579;28;20061;-48
2022/11/27 03:52:37;;;;;;;4.78;3.08;;;23.60;99.90;;;;;;5011987;28;20025;-50
2022/11/27 03:55:19;;;;;;;6.90;3.47;;;23.50;99.90;;;;;;5011731;28;20030;-48
2022/11/27 03:58:05;;;;;;;4.13;3.08;;;23.50;99.90;;;;;;5012081;28;20030;-50
2022/11/27 04:00:36;;;;;;;4.43;3.08;;;23.50;99.90;;;;;;5030253;28;20505;-48
2022/11/27 04:03:03;;;;;;;4.78;2.80;;;23.50;99.90;;;;;;5014756;28;20485;-48
2022/11/27 04:05:29;;;;;;;5.07;3.23;;;23.50;99.90;;;;;;5029973;28;20034;-48
2022/11/27 04:07:54;;;;;;;4.47;2.80;;;23.50;99.90;;;;;;5014643;28;20026;-49
2022/11/27 04:10:20;;;;;;;4.63;2.97;;;23.40;99.90;;;;;;5014463;28;20120;-48
2022/11/27 04:12:46;;;;;;;4.90;2.85;;;23.50;99.90;;;;;;5014494;28;20037;-48
2022/11/27 04:15:12;;;;;;;5.43;3.08;;;23.40;99.90;;;;;;5014566;28;20030;-48
2022/11/27 04:17:38;;;;;;;5.63;3.50;;;23.40;99.90;;;;;;5014685;28;20375;-49
2022/11/27 04:20:05;;;;;;;4.88;2.65;;;23.40;99.90;;;;;;5014473;28;20449;-48
2022/11/27 04:22:31;;;;;;;4.05;3.05;;;23.40;99.90;;;;;;5014479;28;20072;-48
2022/11/27 04:24:57;;;;;;;7.50;3.25;;;23.40;99.90;;;;;;5014264;28;20034;-48
2022/11/27 04:27:22;;;;;;;5.15;3.40;;;23.30;99.90;;;;;;5014438;28;20095;-49
2022/11/27 04:29:48;;;;;;;6.28;3.75;;;23.30;99.90;;;;;;5014125;28;20079;-49
2022/11/27 04:32:14;;;;;;;3.75;2.90;;;23.40;99.90;;;;;;5014263;28;20378;-48
2022/11/27 04:34:40;;;;;;;6.13;3.80;;;23.30;99.90;;;;;;5014363;28;20470;-48
2022/11/27 04:37:05;;;;;;;4.45;2.83;;;23.30;99.90;;;;;;5014160;28;20355;-48
2022/11/27 04:39:31;;;;;;;6.13;2.85;;;23.30;99.90;;;;;;5014074;28;20034;-48
2022/11/27 04:41:57;;;;;;;5.63;3.00;;;23.30;99.90;;;;;;5029264;28;20026;-48
2022/11/27 04:44:23;;;;;;;5.10;2.92;;;23.30;99.90;;;;;;5014004;28;20569;-49
2022/11/27 04:46:49;;;;;;;6.75;3.92;;;23.20;99.90;;;;;;5005581;28;20505;-49
2022/11/27 04:49:14;;;;;;;5.90;3.97;;;23.20;99.90;;;;;;4993315;28;20050;-48
2022/11/27 04:51:40;;;;;;;5.10;3.63;;;23.20;99.90;;;;;;4993335;28;20430;-48
2022/11/27 04:54:06;;;;;;;5.88;3.25;;;23.20;99.90;;;;;;4994245;28;20101;-49
2022/11/27 04:56:32;;;;;;;4.90;3.03;;;23.20;99.90;;;;;;4994323;28;20522;-48
2022/11/27 04:58:57;;;;;;;5.40;3.22;;;23.20;99.90;;;;;;4994156;28;20033;-49
2022/11/27 05:01:23;;;;;;;4.35;2.90;;;23.20;99.90;;;;;;4994920;28;20074;-48
2022/11/27 05:03:49;;;;;;;4.65;3.38;;;23.20;99.90;;;;;;4994160;28;20044;-48
2022/11/27 05:06:15;;;;;;;4.13;3.08;;;23.20;99.90;;;;;;4994033;28;20061;-48
2022/11/27 05:08:40;;;;;;;6.68;3.28;;;23.10;99.90;;;;;;4994076;28;20057;-49
2022/11/27 05:11:13;;;;;;;5.90;3.22;;;23.10;99.90;;;;;;4993035;28;20038;-49
2022/11/27 05:13:39;;;;;;;4.18;3.28;;;23.10;99.90;;;;;;4993027;28;20026;-49
2022/11/27 05:16:05;;;;;;;5.07;3.42;;;23.10;99.90;;;;;;4993805;28;20098;-49
2022/11/27 05:18:31;;;;;;;5.45;3.33;;;23.10;99.90;;;;;;4993730;28;20382;-48
2022/11/27 05:20:59;;;;;;;5.05;3.45;;;23.10;99.90;;;;;;4993701;28;20023;-48
2022/11/27 05:23:25;;;;;;;;;;;23.10;99.90;;;;;;4994193;28;20125;-48
2022/11/27 05:25:51;;;;;;;5.78;3.25;;;23.10;99.90;;;;;;4993733;28;19952;-49
2022/11/27 05:28:16;;;;;;;4.50;3.20;;;23.10;99.90;;;;;;4993651;28;20425;-48
2022/11/27 05:30:42;;;;;;;6.20;3.30;;;23.00;99.90;;;;;;4993783;28;20092;-48
2022/11/27 05:33:08;;;;;;;6.43;3.72;;;23.00;99.90;;;;;;4993438;28;20022;-48
2022/11/27 05:35:34;;;;;;;4.35;2.85;;;23.00;99.90;;;;;;4993293;28;20037;-48
2022/11/27 05:37:59;;;;;;;4.25;2.80;;;23.00;99.90;;;;;;4993564;28;20027;-48
2022/11/27 05:40:25;;;;;;;4.30;2.85;;;23.00;99.90;;;;;;4993495;28;20030;-48
2022/11/27 05:42:51;;;;;;;3.95;2.70;;;23.00;99.90;;;;;;4993407;28;20105;-48
2022/11/27 05:45:17;;;;;;;3.95;3.00;;;22.90;99.90;;;;;;4993443;28;20434;-49
2022/11/27 05:47:43;;;;;;;4.85;3.42;;;23.00;99.90;;;;;;4993600;28;20057;-48
2022/11/27 05:50:08;;;;;;;5.05;3.13;;;22.90;99.90;;;;;;4993123;28;20133;-49
2022/11/27 05:52:34;;;;;;;3.58;2.72;;;22.90;99.90;;;;;;4993295;28;20478;-48
2022/11/27 05:55:00;;;;;;;5.82;2.65;;;22.90;99.90;;;;;;4992244;28;20050;-48
2022/11/27 05:57:27;;;;;;;4.45;2.60;;;22.90;99.90;;;;;;4993194;28;20113;-49
2022/11/27 05:59:52;;;;;;;4.60;2.67;;;22.90;99.90;;;;;;4993012;28;20046;-49
2022/11/27 06:02:18;;;;;;;4.95;2.97;;;22.90;99.90;;;;;;4993088;28;20040;-48
2022/11/27 06:04:44;;;;;;;4.75;2.90;;;22.80;99.90;;;;;;4993321;28;20026;-48
2022/11/27 06:07:10;;;;;;;3.97;2.92;;;22.80;99.90;;;;;;4992891;28;20033;-49
2022/11/27 06:09:38;;;;;;;3.60;2.33;;;22.80;99.90;;;;;;4993075;28;20092;-49
2022/11/27 06:12:04;;;;;;;4.35;2.95;;;22.80;99.90;;;;;;4993122;28;20548;-49
2022/11/27 06:14:33;;;;;;;4.13;2.40;;;22.80;99.90;;;;;;5007993;28;20126;-49
2022/11/27 06:16:58;;;;;;;5.57;3.25;;;22.80;99.90;;;;;;4992932;28;20084;-49
2022/11/27 06:19:24;;;;;;;5.38;2.95;;;22.80;99.90;;;;;;4991719;28;20023;-49
2022/11/27 06:21:50;;;;;;;6.72;3.72;;;22.80;99.90;;;;;;4992644;28;20357;-49
2022/11/27 06:24:16;;;;;;;6.07;2.55;;;22.80;99.90;;;;;;4993118;28;20030;-49
2022/11/27 06:26:41;;;;;;;8.18;3.53;;;22.80;99.90;;;;;;4992915;28;20360;-50
2022/11/27 06:29:08;;;;;;;4.53;2.58;;;22.80;99.90;;;;;;4992679;28;20168;-48
2022/11/27 06:31:34;;;;;;;5.00;2.30;;;22.80;99.90;;;;;;4992769;28;20518;-49
2022/11/27 06:34:01;;;;;;;4.90;2.45;;;22.80;99.90;;;;;;4992675;28;20073;-49
2022/11/27 06:36:30;;;;;;;5.22;2.70;;;22.80;99.90;;;;;;4992800;28;20429;-49
2022/11/27 06:38:56;;;;;;;2.95;2.58;;;22.80;99.90;;;;;;4991456;28;20019;-49
2022/11/27 06:41:25;;;;;;;3.40;2.53;;;22.70;99.90;;;;;;4992664;28;20053;-49
2022/11/27 06:43:50;;;;;;;3.78;2.58;;;22.80;99.90;;;;;;4992897;28;20026;-49
2022/11/27 06:46:19;;;;;;;3.42;2.25;;;22.70;99.90;;;;;;4992861;28;20056;-48
2022/11/27 06:48:46;;;;;;;4.45;2.60;;;22.70;99.90;;;;;;5007665;28;20471;-49
2022/11/27 06:51:15;;;;;;;4.68;2.50;;;22.70;99.90;;;;;;4992581;28;20080;-49
2022/11/27 06:53:41;;;;;;;5.68;3.28;;;22.70;99.90;;;;;;4991328;28;20034;-49
2022/11/27 06:56:12;;;;;;;3.95;2.28;;;22.70;99.90;;;;;;5007747;28;20026;-49
2022/11/27 06:58:39;;;;;;;4.32;2.60;;;22.70;99.90;;;;;;4992634;28;20076;-49
2022/11/27 07:01:07;;;;;;;4.75;2.67;;;22.70;99.90;;;;;;5007475;28;20073;-49
2022/11/27 07:03:34;;;;;;;3.70;2.10;;;22.70;99.90;;;;;;4992599;28;20027;-49
2022/11/27 07:06:05;;;;;;;4.70;2.42;;;22.70;99.90;;;;;;4992537;28;20061;-49
2022/11/27 07:08:31;;;;;;;2.60;2.03;;;22.70;99.90;;;;;;4992515;28;20478;-49
2022/11/27 07:11:09;;;;;;;4.68;2.40;;;22.60;99.90;;;;;;4992437;28;20030;-49
2022/11/27 07:13:35;;;;;;;4.78;2.13;;;22.70;99.90;;;;;;4992348;28;20049;-49
2022/11/27 07:16:02;;;;;;;3.22;2.00;;;22.60;99.90;;;;;;4992434;28;20467;-48
2022/11/27 07:18:34;;;;;;;3.78;1.67;;;22.60;99.90;;;;;;4992515;28;20026;-48
2022/11/27 07:21:00;;;;;;;4.07;2.10;;;22.60;99.90;;;;;;4992279;28;20034;-49
2022/11/27 07:23:26;;;;;;;6.80;2.45;;;22.60;99.90;;;;;;4992525;28;20386;-49
2022/11/27 07:25:52;;;;;;;4.45;2.03;;;22.60;99.90;;;;;;4992328;28;20034;-49
2022/11/27 07:28:17;;;;;;;3.75;2.33;;;22.60;99.90;;;;;;4992470;28;20485;-49
2022/11/27 07:30:43;;;;;;;4.53;2.38;;;22.60;99.90;;;;;;4992172;28;20088;-49
2022/11/27 07:33:09;;;;;;;3.47;2.50;;;22.60;99.90;;;;;;4993165;28;20061;-49
2022/11/27 07:35:34;;;;;;;3.55;2.30;;;22.60;99.90;;;;;;4995738;28;20031;-49
2022/11/27 07:38:00;;;;;;;3.60;2.40;;;22.60;99.90;;;;;;4995554;28;20030;-49
2022/11/27 07:40:26;;;;;;;3.47;2.30;;;22.70;99.90;;;;;;4995470;28;20072;-50
2022/11/27 07:42:52;;;;;;;4.75;2.40;;;22.70;99.90;;;;;;4995920;28;20034;-49
2022/11/27 07:45:17;;;;;;;9.43;3.55;;;22.70;99.90;;;;;;4995711;28;20352;-49
2022/11/27 07:47:43;;;;;;;3.80;2.47;;;22.70;99.90;;;;;;4995513;28;20470;-48
2022/11/27 07:50:10;;;;;;;3.92;2.03;;;22.70;99.90;;;;;;4995431;28;20429;-48
2022/11/27 07:52:36;;;;;;;5.15;2.60;;;22.70;99.90;;;;;;4994172;28;20351;-48
2022/11/27 07:55:03;;;;;;;4.47;2.40;;;22.80;99.90;;;;;;4995290;28;20368;-48
2022/11/27 07:57:29;;;;;;;3.90;2.53;;;22.80;99.90;;;;;;4994091;28;20092;-49
2022/11/27 07:59:55;;;;;;;5.53;2.63;;;22.80;99.90;;;;;;4995044;28;20034;-49
2022/11/27 08:02:20;;;;;;;3.85;2.00;;;22.80;99.90;;;;;;4995528;28;20026;-51
2022/11/27 08:04:46;;;;;;;4.10;2.40;;;22.80;99.90;;;;;;4995105;28;20022;-48
2022/11/27 08:07:12;;;;;;;5.95;2.35;;;22.80;99.90;;;;;;4995270;28;20018;-49
2022/11/27 08:09:38;;;;;;;5.45;2.88;;;22.90;99.90;;;;;;4994932;28;20030;-48
2022/11/27 08:12:05;;;;;;;3.58;2.50;;;22.90;99.90;;;;;;4993878;28;20129;-49
2022/11/27 08:14:31;;;;;;;4.40;2.40;;;22.90;99.90;;;;;;5010136;28;20023;-49
2022/11/27 08:16:57;;;;;;;5.75;2.35;;;23.00;99.90;;;;;;4994728;28;20592;-49
2022/11/27 08:19:23;;;;;;;4.60;2.45;;;23.00;99.90;;;;;;4995057;28;20061;-49
2022/11/27 08:21:49;;;;;;;6.05;2.40;;;23.00;99.90;;;;;;4993320;28;20037;-49
2022/11/27 08:24:15;;;;;;;4.60;2.22;;;23.10;99.90;;;;;;4994471;28;20041;-49
2022/11/27 08:26:41;;;;;;;4.93;2.28;;;23.10;99.90;;;;;;4994652;28;20022;-49
2022/11/27 08:29:09;;;;;;;4.13;2.72;;;23.10;99.90;;;;;;4993373;28;20041;-48
2022/11/27 08:31:35;;;;;;;3.42;1.90;;;23.10;99.90;;;;;;5009576;28;20037;-48
2022/11/27 08:34:00;;;;;;;7.10;2.83;;;23.20;99.90;;;;;;4994777;28;20026;-49
2022/11/27 08:36:26;;;;;;;4.93;2.65;;;23.20;99.90;;;;;;4994461;28;20023;-49
2022/11/27 08:38:53;;;;;;;3.80;2.40;;;23.30;99.90;;;;;;4994666;28;20105;-49
2022/11/27 08:41:19;;;;;;;3.65;2.08;;;23.30;99.90;;;;;;4993083;28;20018;-48
2022/11/27 08:43:45;;;;;;;3.70;2.30;;;23.30;99.90;;;;;;4994085;28;20041;-48
2022/11/27 08:46:12;;;;;;;5.20;3.08;;;23.30;99.90;;;;;;4994267;28;20027;-49
2022/11/27 08:48:38;;;;;;;6.65;2.78;;;23.40;99.90;;;;;;4994253;28;20034;-48
2022/11/27 08:51:09;;;;;;;6.55;2.67;;;23.40;99.90;;;;;;4994074;28;20038;-49
2022/11/27 08:53:36;;;;;;;3.80;2.78;;;23.40;99.90;;;;;;4993881;28;20499;-48
2022/11/27 08:56:14;;;;;;;5.88;2.85;;;23.50;99.90;;;;;;5009130;28;20038;-48
2022/11/27 08:58:40;;;;;;;5.88;2.83;;;23.50;99.90;;;;;;4994048;28;20023;-48
2022/11/27 09:01:08;;;;;;;5.45;3.35;;;23.50;99.90;;;;;;4993873;28;20064;-48
2022/11/27 09:03:33;;;;;;;;;;;23.60;99.90;;;;;;4994407;28;20114;-48
2022/11/27 09:05:59;;;;;;;6.38;3.25;;;23.60;99.90;;;;;;4993587;28;19937;-48
2022/11/27 09:08:25;;;;;;;8.20;3.33;;;23.70;99.90;;;;;;4994129;28;20133;-48
2022/11/27 09:10:50;;;;;;;6.57;3.58;;;23.70;99.90;;;;;;4993591;28;20057;-48
2022/11/27 09:13:16;;;;;;;5.55;3.28;;;23.70;99.90;;;;;;4992427;28;20117;-48
2022/11/27 09:15:42;;;;;;;5.00;3.28;;;23.80;99.90;;;;;;4993750;28;20034;-48
2022/11/27 09:18:07;;;;;;;7.03;2.92;;;23.80;99.90;;;;;;4993682;28;20046;-48
2022/11/27 09:20:33;;;;;;;4.85;3.08;;;23.90;99.90;;;;;;4993440;28;20480;-48
2022/11/27 09:23:01;;;;;;;9.55;3.60;;;23.90;99.90;;;;;;4993498;28;20719;-49
2022/11/27 09:25:27;;;;;;;;;;;23.90;99.90;;;;;;4994291;28;20053;-48
2022/11/27 09:27:53;;;;;;;7.20;3.90;;;24.00;99.90;;;;;;4993566;28;19941;-48
2022/11/27 09:30:18;;;;;;;7.43;3.58;;;24.00;99.90;;;;;;4993304;28;20046;-48
2022/11/27 09:32:44;;;;;;;4.43;3.10;;;24.10;99.90;;;;;;4993364;28;20102;-48
2022/11/27 09:35:10;;;;;;;5.40;2.85;;;24.10;99.90;;;;;;4993331;28;20037;-48
2022/11/27 09:37:35;;;;;;;4.82;3.20;;;24.10;99.90;;;;;;4993405;28;20023;-48
2022/11/27 09:40:01;;;;;;;4.72;2.97;;;24.20;99.90;;;;;;4993164;28;20022;-48
2022/11/27 09:42:56;;;;;;;4.95;3.47;;;24.20;99.90;;;;;;4993363;28;20041;-48
2022/11/27 09:45:25;;;;;;;9.02;3.60;;;24.20;99.90;;;;;;4986758;28;20482;-48
2022/11/27 09:47:59;;;;;;;10.30;4.93;;;24.30;99.90;;;;;;4993097;28;20041;-48
2022/11/27 09:50:36;;;;;;;4.40;3.20;;;24.30;99.90;;;;;;4993126;28;20364;-48
2022/11/27 09:53:27;;;;;;;4.47;3.40;;;24.40;99.90;;;;;;4992986;28;20066;-48
2022/11/27 09:55:56;;;;;;;5.55;3.22;;;24.40;99.90;;;;;;4992489;28;20271;-48
2022/11/27 09:58:40;;;;;;;7.88;3.63;;;24.50;99.90;;;;;;4993428;28;20479;-48
2022/11/27 10:01:17;;;;;;;9.70;3.33;;;24.50;99.90;;;;;;4992829;28;20073;-48
2022/11/27 10:03:44;;;;;;;8.23;3.38;;;24.50;99.90;;;;;;4992955;28;20018;-49
2022/11/27 10:06:34;;;;;;;12.88;5.55;;;24.60;99.90;;;;;;4992981;28;20160;-48
2022/11/27 10:09:14;;;;;;;8.75;3.47;;;24.60;99.90;;;;;;4991560;28;20043;-48
2022/11/27 10:11:41;;;;;;;7.25;3.83;;;24.70;99.90;;;;;;4993142;28;20398;-48
2022/11/27 10:14:18;;;;;;;8.32;3.92;;;24.70;99.90;;;;;;4992857;28;20106;-47
2022/11/27 10:16:53;;;;;;;6.28;3.00;;;24.70;99.90;;;;;;4991450;28;20128;-48
2022/11/27 10:19:25;;;;;;;5.25;3.42;;;24.70;99.90;;;;;;4992822;28;20027;-48
2022/11/27 10:22:02;;;;;;;6.75;3.10;;;24.80;99.90;;;;;;4992634;28;20026;-49
2022/11/27 10:24:44;;;;;;;5.25;3.10;;;24.80;99.90;;;;;;4992999;28;20164;-49
2022/11/27 10:27:27;;;;;;;5.22;3.47;;;24.80;99.90;;;;;;4992705;28;20380;-49
2022/11/27 10:29:54;;;;;;;5.28;3.10;;;24.90;99.90;;;;;;5007684;28;20144;-48
2022/11/27 10:32:32;;;;;;;;;;;24.90;99.90;;;;;;4993075;28;20019;-48
2022/11/27 10:35:11;;;;;;;5.20;3.20;;;25.00;99.90;;;;;;4992836;28;19952;-47
2022/11/27 10:37:57;;;;;;;4.00;2.83;;;25.00;99.90;;;;;;4992561;28;20085;-48
2022/11/27 10:40:31;;;;;;;5.35;3.00;;;25.00;99.90;;;;;;4992661;28;20106;-47
2022/11/27 10:43:17;;;;;;;4.93;3.50;;;25.10;99.90;;;;;;4992642;28;20044;-48
2022/11/27 10:45:53;;;;;;;5.10;3.10;;;25.10;99.90;;;;;;4992578;28;20077;-48
2022/11/27 10:48:19;;;;;;;8.67;3.43;;;25.10;99.90;;;;;;4992652;28;20041;-49
2022/11/27 10:50:46;;;;;;;4.90;3.47;;;25.20;99.90;;;;;;4992278;28;20283;-48
2022/11/27 10:53:27;;;;;;;8.45;3.80;;;25.20;99.90;;;;;;4992467;28;20493;-48
2022/11/27 10:56:09;;;;;;;5.53;3.55;;;25.30;99.90;;;;;;4992382;28;20386;-47
2022/11/27 10:59:00;;;;;;;4.45;3.15;;;25.30;99.90;;;;;;4992440;28;20030;-48
2022/11/27 11:01:29;;;;;;;8.15;3.45;;;25.30;99.90;;;;;;4992404;28;20042;-48
2022/11/27 11:04:06;;;;;;;5.90;3.53;;;25.30;99.90;;;;;;4992337;28;20030;-48
2022/11/27 11:06:38;;;;;;;5.00;3.25;;;25.40;99.90;;;;;;4992649;28;20014;-48
2022/11/27 11:09:13;;;;;;;9.63;4.35;;;25.40;99.90;;;;;;4994682;28;20030;-48
2022/11/27 11:11:39;;;;;;;7.35;3.70;;;25.40;99.90;;;;;;4995998;28;20117;-48
2022/11/27 11:14:24;;;;;;;7.45;3.50;;;25.40;99.90;;;;;;4996004;28;20058;-48
2022/11/27 11:16:51;;;;;;;7.15;4.10;;;25.50;99.90;;;;;;4994460;28;20033;-48
2022/11/27 11:19:38;;;;;;;8.98;4.20;;;25.50;99.90;;;;;;5000328;28;20453;-48
2022/11/27 11:22:14;;;;;;;6.25;3.50;;;25.50;99.90;;;;;;5012465;28;20030;-48
2022/11/27 11:24:48;;;;;;;8.45;3.88;;;25.60;99.90;;;;;;5006275;28;20034;-48
2022/11/27 11:27:29;;;;;;;7.70;3.85;;;25.60;99.90;;;;;;5004528;28;20139;-48
2022/11/27 11:29:59;;;;;;;6.80;3.58;;;25.60;99.90;;;;;;5004511;28;20114;-48
2022/11/27 11:32:37;;;;;;;9.98;3.50;;;25.70;99.90;;;;;;5003796;28;20125;-48
2022/11/27 11:35:22;;;;;;;5.00;3.38;;;25.70;99.90;;;;;;5000877;28;20026;-48
2022/11/27 11:37:49;;;;;;;10.10;4.35;;;25.70;99.90;;;;;;5004681;28;20025;-48
2022/11/27 11:40:15;;;;;;;6.22;4.38;;;25.80;99.90;;;;;;5010699;28;20030;-48
2022/11/27 11:42:54;;;;;;;9.52;4.57;;;25.80;99.90;;;;;;5015160;28;20481;-48
2022/11/27 11:45:21;;;;;;;7.60;5.28;;;25.80;99.90;;;;;;5008324;28;20016;-47
2022/11/27 11:47:53;;;;;;;5.32;1.67;;;25.80;99.90;;;;;;4997994;28;20066;-47
2022/11/27 11:50:24;;;;;;;2.03;0.73;;;25.80;99.90;;;;;;4995334;28;20405;-46
2022/11/27 11:53:17;;;;;;;3.55;1.00;;;25.70;99.90;;;;;;5006471;28;20080;-46
2022/11/27 11:56:16;;;;;;;7.07;4.65;;;25.50;99.90;;;;;;5025004;28;20161;-46
2022/11/27 11:59:01;;;;;;;8.93;4.68;;;25.30;99.90;;;;;;5004507;28;20496;-46
2022/11/27 12:01:37;;;;;;;3.90;2.13;;;25.00;99.90;;;;;;5019991;28;20049;-46
2022/11/27 12:04:24;;;;;;;6.28;3.38;;;24.70;99.90;;;;;;5004501;28;20030;-48
2022/11/27 12:07:36;;;;;;;5.25;3.53;;;24.50;99.90;;;;;;5005303;28;20424;-48
2022/11/27 12:10:21;;;;;;;6.82;3.97;;;24.40;99.90;;;;;;5029786;28;20394;-48
2022/11/27 12:12:46;;;;;;;5.72;4.18;;;24.40;99.90;;;;;;5014582;28;20018;-48
2022/11/27 12:15:41;;;;;;;7.30;5.22;;;24.50;99.90;;;;;;5014441;28;20485;-48
2022/11/27 12:18:26;;;;;;;8.38;4.53;;;24.50;99.90;;;;;;4997837;28;20026;-47
2022/11/27 12:21:22;;;;;;;9.00;5.50;;;24.70;99.90;;;;;;5014333;28;20033;-48
2022/11/27 12:24:09;;;;;;;7.93;5.07;;;24.90;99.90;;;;;;5008044;28;20022;-48
2022/11/27 12:26:56;;;;;;;8.75;5.53;;;25.00;99.90;;;;;;5004043;28;20025;-47
2022/11/27 12:29:44;;;;;;;9.35;5.43;;;25.10;99.90;;;;;;4997084;28;20030;-48
2022/11/27 12:32:28;;;;;;;;;;;25.20;99.90;;;;;;5007264;28;20034;-48
2022/11/27 12:35:03;;;;;;;3.05;1.15;;;25.30;99.90;;;;;;5009114;28;19914;-48
2022/11/27 12:37:43;;;;;;;3.15;1.30;;;25.10;99.90;;;;;;5023441;28;20060;-47
2022/11/27 12:40:35;;;;;;;2.63;0.80;;;24.90;99.90;;;;;;5014001;28;20394;-47
2022/11/27 12:43:26;;;;;;;3.08;1.67;;;24.70;99.90;;;;;;5005062;28;20027;-48
2022/11/27 12:46:10;;;;;;;7.55;3.42;;;24.60;99.90;;;;;;5006327;28;20041;-48
2022/11/27 12:48:38;;;;;;;3.20;1.60;;;24.40;99.90;;;;;;5010710;28;20026;-49
2022/11/27 12:51:18;;;;;;;2.65;1.30;;;24.30;99.90;;;;;;5013828;28;20230;-48
2022/11/27 12:54:01;;;;;;;3.03;1.60;;;24.10;99.90;;;;;;5004819;28;20038;-48
2022/11/27 12:56:50;;;;;;;3.22;1.55;;;23.90;99.90;;;;;;5007956;28;20096;-48
2022/11/27 12:59:45;;;;;;;4.35;1.15;;;23.70;99.90;;;;;;5028742;28;20385;-48
2022/11/27 13:02:41;;;;;;;3.80;1.30;;;23.50;99.90;;;;;;5013666;28;20048;-47
2022/11/27 13:05:10;;;;;;;3.30;0.88;;;23.40;99.90;;;;;;5013711;28;20486;-48
2022/11/27 13:07:46;;;;;;;4.65;0.90;;;23.40;99.90;;;;;;5013700;28;20029;-48
2022/11/27 13:10:21;;;;;;;3.13;0.82;;;23.30;99.90;;;;;;5013114;28;20413;-48